createdAt,value
2018-09-13T00:01:21.757Z,3.27
2018-09-13T00:03:48.662Z,5.70
2018-09-13T00:06:15.637Z,5.37
2018-09-13T00:08:42.578Z,5.67
2018-09-13T00:11:09.506Z,6.60
2018-09-13T00:13:36.497Z,10.93
2018-09-13T00:16:03.475Z,7.03
2018-09-13T00:18:30.442Z,6.10
2018-09-13T00:20:57.377Z,7.87
2018-09-13T00:23:24.260Z,5.67
2018-09-13T00:25:51.242Z,7.70
2018-09-13T00:28:18.153Z,4.87
2018-09-13T00:30:45.152Z,5.97
2018-09-13T00:33:12.177Z,5.57
2018-09-13T00:35:39.093Z,9.73
2018-09-13T00:38:06.018Z,7.60
2018-09-13T00:40:32.924Z,8.40
2018-09-13T00:42:59.832Z,8.43
2018-09-13T00:45:26.734Z,6.60
2018-09-13T00:47:53.677Z,5.70
2018-09-13T00:50:20.568Z,7.90
2018-09-13T00:52:47.483Z,5.53
2018-09-13T00:55:14.393Z,5.97
2018-09-13T00:57:41.321Z,9.17
2018-09-13T01:00:08.260Z,8.17
2018-09-13T01:02:35.591Z,6.20
2018-09-13T01:05:02.531Z,8.10
2018-09-13T01:07:29.880Z,9.87
2018-09-13T01:09:56.802Z,5.73
2018-09-13T01:12:24.356Z,7.03
2018-09-13T01:14:51.273Z,8.73
2018-09-13T01:17:18.181Z,5.37
2018-09-13T01:19:45.439Z,6.13
2018-09-13T01:22:12.357Z,8.47
2018-09-13T01:24:39.266Z,7.23
2018-09-13T01:27:06.190Z,7.73
2018-09-13T01:29:33.181Z,8.50
2018-09-13T01:32:00.108Z,8.03
2018-09-13T01:34:27.000Z,9.30
2018-09-13T01:36:53.951Z,12.40
2018-09-13T01:39:20.864Z,9.93
2018-09-13T01:41:47.793Z,12.10
2018-09-13T01:44:14.689Z,8.70
2018-09-13T01:46:41.617Z,9.67
2018-09-13T01:49:08.524Z,9.63
2018-09-13T01:51:35.423Z,9.80
2018-09-13T01:54:02.337Z,8.90
2018-09-13T01:56:29.425Z,10.50
2018-09-13T01:58:56.337Z,9.47
2018-09-13T02:01:23.256Z,10.97
2018-09-13T02:03:50.170Z,8.60
2018-09-13T02:06:17.097Z,9.67
2018-09-13T02:08:44.029Z,11.10
2018-09-13T02:11:10.939Z,12.30
2018-09-13T02:13:37.871Z,10.77
2018-09-13T02:16:05.060Z,8.13
2018-09-13T02:18:31.970Z,14.83
2018-09-13T02:20:59.041Z,12.17
2018-09-13T02:23:25.945Z,11.57
2018-09-13T02:25:52.880Z,7.97
2018-09-13T02:28:19.830Z,8.90
2018-09-13T02:30:46.736Z,10.60
2018-09-13T02:33:13.645Z,8.13
2018-09-13T02:35:40.540Z,11.67
2018-09-13T02:38:07.436Z,7.13
2018-09-13T02:40:34.337Z,6.73
2018-09-13T02:43:01.242Z,10.70
2018-09-13T02:45:28.128Z,8.77
2018-09-13T02:47:55.056Z,8.23
2018-09-13T02:50:21.948Z,9.07
2018-09-13T02:52:48.850Z,7.53
2018-09-13T02:55:15.732Z,9.03
2018-09-13T02:57:42.634Z,8.77
2018-09-13T03:00:09.646Z,8.53
2018-09-13T03:02:36.757Z,8.57
2018-09-13T03:05:03.656Z,10.90
2018-09-13T03:07:30.581Z,10.27
2018-09-13T03:09:57.485Z,8.33
2018-09-13T03:12:24.410Z,9.03
2018-09-13T03:14:51.328Z,10.53
2018-09-13T03:17:18.253Z,8.83
2018-09-13T03:19:45.189Z,7.43
2018-09-13T03:22:12.094Z,7.40
2018-09-13T03:24:39.821Z,7.17
2018-09-13T03:27:06.742Z,8.13
2018-09-13T03:29:33.733Z,9.17
2018-09-13T03:32:00.652Z,6.73
2018-09-13T03:34:27.590Z,8.87
2018-09-13T03:36:54.502Z,7.53
2018-09-13T03:39:21.457Z,8.63
2018-09-13T03:41:48.374Z,7.80
2018-09-13T03:44:15.321Z,7.97
2018-09-13T03:46:42.242Z,7.70
2018-09-13T03:49:09.153Z,8.13
2018-09-13T03:51:36.056Z,9.27
2018-09-13T03:54:02.989Z,8.23
2018-09-13T03:56:29.927Z,7.17
2018-09-13T03:58:56.888Z,7.23
2018-09-13T04:01:23.840Z,7.83
2018-09-13T04:03:50.799Z,6.80
2018-09-13T04:06:17.966Z,7.60
2018-09-13T04:08:44.930Z,7.43
2018-09-13T04:11:11.870Z,7.60
2018-09-13T04:13:38.914Z,6.80
2018-09-13T04:16:05.824Z,9.03
2018-09-13T04:18:32.786Z,9.20
2018-09-13T04:20:59.704Z,9.27
2018-09-13T04:23:26.605Z,11.00
2018-09-13T04:25:53.500Z,9.20
2018-09-13T04:28:20.422Z,7.30
2018-09-13T04:30:47.349Z,10.00
2018-09-13T04:33:14.277Z,6.17
2018-09-13T04:35:41.321Z,6.23
2018-09-13T04:38:08.125Z,7.63
2018-09-13T04:40:35.045Z,5.47
2018-09-13T04:43:01.975Z,6.67
2018-09-13T04:45:28.915Z,6.20
2018-09-13T04:47:55.885Z,5.33
2018-09-13T04:50:22.805Z,6.43
2018-09-13T04:52:49.706Z,6.10
2018-09-13T04:55:16.628Z,10.23
2018-09-13T04:57:43.513Z,7.33
2018-09-13T05:00:10.553Z,6.83
2018-09-13T05:02:37.706Z,6.70
2018-09-13T05:05:04.711Z,8.03
2018-09-13T05:07:31.601Z,11.83
2018-09-13T05:09:58.508Z,11.97
2018-09-13T05:12:25.401Z,8.00
2018-09-13T05:14:52.301Z,9.30
2018-09-13T05:17:19.204Z,8.90
2018-09-13T05:19:46.116Z,8.40
2018-09-13T05:22:13.005Z,9.77
2018-09-13T05:24:39.917Z,9.50
2018-09-13T05:27:06.807Z,11.80
2018-09-13T05:29:33.748Z,10.70
2018-09-13T05:32:00.649Z,11.90
2018-09-13T05:34:34.459Z,9.13
2018-09-13T05:37:01.364Z,7.43
2018-09-13T05:39:28.282Z,7.13
2018-09-13T05:41:55.185Z,10.67
2018-09-13T05:44:22.097Z,10.90
2018-09-13T05:46:48.980Z,12.20
2018-09-13T05:49:15.873Z,7.80
2018-09-13T05:51:42.785Z,11.87
2018-09-13T05:54:09.661Z,9.27
2018-09-13T05:56:36.588Z,9.47
2018-09-13T05:59:03.493Z,11.03
2018-09-13T06:01:30.483Z,11.63
2018-09-13T06:03:57.517Z,8.93
2018-09-13T06:06:24.530Z,13.17
2018-09-13T06:08:51.513Z,8.70
2018-09-13T06:11:18.528Z,8.93
2018-09-13T06:13:45.445Z,11.27
2018-09-13T06:16:12.353Z,12.07
2018-09-13T06:18:39.249Z,14.57
2018-09-13T06:21:06.153Z,12.70
2018-09-13T06:23:33.066Z,12.53
2018-09-13T06:25:59.957Z,17.43
2018-09-13T06:28:26.873Z,16.57
2018-09-13T06:30:53.780Z,14.33
2018-09-13T06:33:20.777Z,14.67
2018-09-13T06:35:47.689Z,15.37
2018-09-13T06:38:14.614Z,10.10
2018-09-13T06:40:41.516Z,12.57
2018-09-13T06:43:08.416Z,15.63
2018-09-13T06:45:35.330Z,13.23
2018-09-13T06:48:02.245Z,13.87
2018-09-13T06:50:29.137Z,11.13
2018-09-13T06:52:56.028Z,13.00
2018-09-13T06:55:22.934Z,12.07
2018-09-13T06:57:49.820Z,10.70
2018-09-13T07:00:16.725Z,11.97
2018-09-13T07:02:43.617Z,12.57
2018-09-13T07:05:10.561Z,11.90
2018-09-13T07:07:37.487Z,13.03
2018-09-13T07:10:04.401Z,11.60
2018-09-13T07:12:31.297Z,13.23
2018-09-13T07:14:58.186Z,12.07
2018-09-13T07:17:25.089Z,13.40
2018-09-13T07:19:52.045Z,9.83
2018-09-13T07:22:18.938Z,14.77
2018-09-13T07:24:45.829Z,15.80
2018-09-13T07:27:12.726Z,13.60
2018-09-13T07:29:39.629Z,17.20
2018-09-13T07:32:06.520Z,18.67
2018-09-13T07:34:33.408Z,13.90
2018-09-13T07:37:00.302Z,13.87
2018-09-13T07:39:27.214Z,11.50
2018-09-13T07:41:54.130Z,16.60
2018-09-13T07:44:21.088Z,12.10
2018-09-13T07:46:47.985Z,13.80
2018-09-13T07:49:14.935Z,13.23
2018-09-13T07:51:41.803Z,11.70
2018-09-13T07:54:08.693Z,16.10
2018-09-13T07:56:35.605Z,8.93
2018-09-13T07:59:02.500Z,13.73
2018-09-13T08:01:29.400Z,14.43
2018-09-13T08:03:56.372Z,10.43
2018-09-13T08:06:23.277Z,10.73
2018-09-13T08:08:50.168Z,11.47
2018-09-13T08:11:17.077Z,11.83
2018-09-13T08:13:43.968Z,13.10
2018-09-13T08:16:10.863Z,9.60
2018-09-13T08:18:37.766Z,11.43
2018-09-13T08:21:05.133Z,11.43
2018-09-13T08:23:32.061Z,11.80
2018-09-13T08:25:58.952Z,8.57
2018-09-13T08:28:25.858Z,10.00
2018-09-13T08:30:52.740Z,8.63
2018-09-13T08:33:19.700Z,7.50
2018-09-13T08:35:46.545Z,11.33
2018-09-13T08:38:13.521Z,9.73
2018-09-13T08:40:40.469Z,8.70
2018-09-13T08:43:07.412Z,8.03
2018-09-13T08:45:34.325Z,8.10
2018-09-13T08:48:01.224Z,9.53
2018-09-13T08:50:28.173Z,8.10
2018-09-13T08:52:55.206Z,10.37
2018-09-13T08:55:22.109Z,10.83
2018-09-13T08:57:49.045Z,7.27
2018-09-13T09:00:15.960Z,6.10
2018-09-13T09:02:42.865Z,8.73
2018-09-13T09:05:09.832Z,10.87
2018-09-13T09:07:37.433Z,7.47
2018-09-13T09:10:04.382Z,7.93
2018-09-13T09:12:31.309Z,11.33
2018-09-13T09:14:58.321Z,13.40
2018-09-13T09:17:25.261Z,10.53
2018-09-13T09:19:52.262Z,7.33
2018-09-13T09:22:19.197Z,13.43
2018-09-13T09:24:46.089Z,8.07
2018-09-13T09:27:13.031Z,5.30
2018-09-13T09:29:39.972Z,9.93
2018-09-13T09:32:07.193Z,8.63
2018-09-13T09:34:34.174Z,6.13
2018-09-13T09:37:01.107Z,9.57
2018-09-13T09:39:28.035Z,8.03
2018-09-13T09:41:55.029Z,7.93
2018-09-13T09:44:22.010Z,7.57
2018-09-13T09:46:48.893Z,7.47
2018-09-13T09:49:15.801Z,7.07
2018-09-13T09:51:42.734Z,8.30
2018-09-13T09:54:09.687Z,7.30
2018-09-13T09:56:36.773Z,6.73
2018-09-13T09:59:03.714Z,10.27
2018-09-13T10:01:33.053Z,5.40
2018-09-13T10:04:00.045Z,13.70
2018-09-13T10:06:26.953Z,9.60
2018-09-13T10:08:53.922Z,9.07
2018-09-13T10:11:20.829Z,9.60
2018-09-13T10:13:47.780Z,8.03
2018-09-13T10:16:20.561Z,8.27
2018-09-13T10:18:51.997Z,7.10
2018-09-13T10:21:24.685Z,7.33
2018-09-13T10:23:57.521Z,9.87
2018-09-13T10:26:30.153Z,5.07
2018-09-13T10:29:02.898Z,7.77
2018-09-13T10:31:35.541Z,8.13
2018-09-13T10:34:08.240Z,7.80
2018-09-13T10:36:41.002Z,7.20
2018-09-13T10:39:13.951Z,7.10
2018-09-13T10:41:47.085Z,7.97
2018-09-13T10:44:19.794Z,9.00
2018-09-13T10:46:51.958Z,11.90
2018-09-13T10:49:24.548Z,8.20
2018-09-13T10:51:57.204Z,8.87
2018-09-13T10:54:29.678Z,10.03
2018-09-13T10:57:01.177Z,6.53
2018-09-13T10:59:28.104Z,8.57
2018-09-13T11:01:55.024Z,8.60
2018-09-13T11:04:21.953Z,11.53
2018-09-13T11:06:48.841Z,7.73
2018-09-13T11:09:15.785Z,8.20
2018-09-13T11:11:43.260Z,6.33
2018-09-13T11:14:15.573Z,7.47
2018-09-13T11:16:42.552Z,7.60
2018-09-13T11:19:09.482Z,9.03
2018-09-13T11:21:36.388Z,7.33
2018-09-13T11:24:03.309Z,7.13
2018-09-13T11:26:30.225Z,7.40
2018-09-13T11:28:57.200Z,6.33
2018-09-13T11:31:24.113Z,5.50
2018-09-13T11:33:51.065Z,7.53
2018-09-13T11:36:17.997Z,5.27
2018-09-13T11:38:44.930Z,5.77
2018-09-13T11:41:11.840Z,5.93
2018-09-13T11:43:38.737Z,6.83
2018-09-13T11:46:05.710Z,10.77
2018-09-13T11:48:32.608Z,6.37
2018-09-13T11:50:59.521Z,6.67
2018-09-13T11:53:26.432Z,6.20
2018-09-13T11:55:53.345Z,10.53
2018-09-13T11:58:20.256Z,8.23
2018-09-13T12:00:47.184Z,6.50
2018-09-13T12:03:14.259Z,4.93
2018-09-13T12:05:41.209Z,7.90
2018-09-13T12:08:08.101Z,5.57
2018-09-13T12:10:35.008Z,4.53
2018-09-13T12:13:01.910Z,6.20
2018-09-13T12:15:29.523Z,7.23
2018-09-13T12:17:56.529Z,8.50
2018-09-13T12:20:23.389Z,6.97
2018-09-13T12:22:50.318Z,4.90
2018-09-13T12:25:17.249Z,6.07
2018-09-13T12:27:44.151Z,6.77
2018-09-13T12:30:11.059Z,8.90
2018-09-13T12:32:38.024Z,7.40
2018-09-13T12:35:05.192Z,7.47
2018-09-13T12:37:32.119Z,8.47
2018-09-13T12:39:59.053Z,7.50
2018-09-13T12:42:25.950Z,6.77
2018-09-13T12:44:52.865Z,6.33
2018-09-13T12:47:19.753Z,6.40
2018-09-13T12:49:46.691Z,6.87
2018-09-13T12:52:13.848Z,8.53
2018-09-13T12:54:40.673Z,6.90
2018-09-13T12:57:07.628Z,7.73
2018-09-13T12:59:34.529Z,9.73
2018-09-13T13:02:01.450Z,7.00
2018-09-13T13:04:28.366Z,9.00
2018-09-13T13:06:55.333Z,8.57
2018-09-13T13:09:22.221Z,6.77
2018-09-13T13:11:49.109Z,7.00
2018-09-13T13:14:16.009Z,7.70
2018-09-13T13:16:42.998Z,7.63
2018-09-13T13:19:09.812Z,9.90
2018-09-13T13:21:36.761Z,7.37
2018-09-13T13:24:03.711Z,6.67
2018-09-13T13:26:30.619Z,8.87
2018-09-13T13:28:57.518Z,9.40
2018-09-13T13:31:24.423Z,7.63
2018-09-13T13:33:51.313Z,9.50
2018-09-13T13:36:18.281Z,5.70
2018-09-13T13:38:45.137Z,7.93
2018-09-13T13:41:12.050Z,8.90
2018-09-13T13:43:38.982Z,10.53
2018-09-13T13:46:05.907Z,7.63
2018-09-13T13:48:32.821Z,6.20
2018-09-13T13:50:59.737Z,5.90
2018-09-13T13:53:26.624Z,7.70
2018-09-13T13:55:53.575Z,6.10
2018-09-13T13:58:20.449Z,9.83
2018-09-13T14:00:47.350Z,6.17
2018-09-13T14:03:14.297Z,5.60
2018-09-13T14:05:41.184Z,5.50
2018-09-13T14:10:41.734Z,7.97
2018-09-13T14:13:08.675Z,6.00
2018-09-13T14:15:35.574Z,7.27
2018-09-13T14:18:02.479Z,9.07
2018-09-13T14:20:29.411Z,9.00
2018-09-13T14:22:56.321Z,6.20
2018-09-13T14:25:23.235Z,6.10
2018-09-13T14:27:50.181Z,6.80
2018-09-13T14:30:17.094Z,7.23
2018-09-13T14:32:44.001Z,8.20
2018-09-13T14:35:10.896Z,7.00
2018-09-13T14:37:37.796Z,10.33
2018-09-13T14:40:04.716Z,6.13
2018-09-13T14:42:31.654Z,11.30
2018-09-13T14:44:58.574Z,5.87
2018-09-13T14:47:25.542Z,6.27
2018-09-13T14:49:52.416Z,9.83
2018-09-13T14:52:19.330Z,6.30
2018-09-13T14:54:46.237Z,9.67
2018-09-13T14:57:13.184Z,7.67
2018-09-13T14:59:40.084Z,7.53
2018-09-13T15:02:06.980Z,5.43
2018-09-13T15:04:34.301Z,6.40
2018-09-13T15:07:01.394Z,6.70
2018-09-13T15:09:28.164Z,4.43
2018-09-13T15:11:55.141Z,7.53
2018-09-13T15:14:22.036Z,4.33
2018-09-13T15:16:48.948Z,5.57
2018-09-13T15:19:15.840Z,3.60
2018-09-13T15:21:42.745Z,5.93
2018-09-13T15:24:09.697Z,5.93
2018-09-13T15:26:36.579Z,3.90
2018-09-13T15:29:03.493Z,6.40
2018-09-13T15:31:30.384Z,6.37
2018-09-13T15:33:57.293Z,6.80
2018-09-13T15:36:24.196Z,6.97
2018-09-13T15:38:51.337Z,5.80
2018-09-13T15:41:18.254Z,6.97
2018-09-13T15:43:45.429Z,6.77
2018-09-13T15:46:12.329Z,6.63
2018-09-13T15:48:39.225Z,4.80
2018-09-13T15:51:06.254Z,5.97
2018-09-13T15:53:33.165Z,3.77
2018-09-13T15:56:00.041Z,3.60
2018-09-13T15:58:26.953Z,5.30
2018-09-13T16:00:53.857Z,5.77
2018-09-13T16:03:20.769Z,4.97
2018-09-13T16:05:47.664Z,4.57
2018-09-13T16:08:14.607Z,5.63
2018-09-13T16:10:41.520Z,4.97
2018-09-13T16:13:08.506Z,5.00
2018-09-13T16:15:35.325Z,4.60
2018-09-13T16:18:02.252Z,3.20
2018-09-13T16:20:29.137Z,5.17
2018-09-13T16:22:56.068Z,5.37
2018-09-13T16:25:22.961Z,4.93
2018-09-13T16:27:49.864Z,4.80
2018-09-13T16:30:16.755Z,8.17
2018-09-13T16:32:43.667Z,7.13
2018-09-13T16:35:10.605Z,7.27
2018-09-13T16:37:43.313Z,5.47
2018-09-13T16:40:15.994Z,9.47
2018-09-13T16:42:51.753Z,5.60
2018-09-13T16:45:19.077Z,7.97
2018-09-13T16:47:51.977Z,3.90
2018-09-13T16:50:18.849Z,6.20
2018-09-13T16:52:45.728Z,6.70
2018-09-13T16:55:12.677Z,6.87
2018-09-13T16:57:39.658Z,5.57
2018-09-13T17:00:12.022Z,6.23
2018-09-13T17:02:38.941Z,7.43
2018-09-13T17:05:05.999Z,5.50
2018-09-13T17:07:32.940Z,4.77
2018-09-13T17:09:59.841Z,6.10
2018-09-13T17:12:27.060Z,6.90
2018-09-13T17:14:54.110Z,6.60
2018-09-13T17:17:21.001Z,5.83
2018-09-13T17:19:48.311Z,6.10
2018-09-13T17:22:15.186Z,5.53
2018-09-13T17:24:42.117Z,6.03
2018-09-13T17:27:09.181Z,5.70
2018-09-13T17:29:36.082Z,4.73
2018-09-13T17:32:03.041Z,7.40
2018-09-13T17:34:30.066Z,4.70
2018-09-13T17:36:57.013Z,5.43
2018-09-13T17:39:23.901Z,8.77
2018-09-13T17:41:50.794Z,5.73
2018-09-13T17:44:17.674Z,8.37
2018-09-13T17:46:44.552Z,5.23
2018-09-13T17:49:11.445Z,7.80
2018-09-13T17:51:38.348Z,4.93
2018-09-13T17:54:05.257Z,7.07
2018-09-13T17:56:32.154Z,6.30
2018-09-13T17:58:59.048Z,4.63
2018-09-13T18:01:25.928Z,7.80
2018-09-13T18:03:52.849Z,4.80
2018-09-13T18:06:20.177Z,6.60
2018-09-13T18:08:47.112Z,7.20
2018-09-13T18:11:14.043Z,6.90
2018-09-13T18:13:40.889Z,5.73
2018-09-13T18:16:07.800Z,5.50
2018-09-13T18:18:34.684Z,4.80
2018-09-13T18:21:01.592Z,3.93
2018-09-13T18:23:28.942Z,8.23
2018-09-13T18:25:55.865Z,7.67
2018-09-13T18:28:22.769Z,6.53
2018-09-13T18:30:49.668Z,6.70
2018-09-13T18:33:16.568Z,6.03
2018-09-13T18:35:43.471Z,9.20
2018-09-13T18:38:10.360Z,6.77
2018-09-13T18:40:37.264Z,4.67
2018-09-13T18:43:04.217Z,9.17
2018-09-13T18:45:31.190Z,3.63
2018-09-13T18:47:58.090Z,6.23
2018-09-13T18:50:25.001Z,6.33
2018-09-13T18:52:51.936Z,10.63
2018-09-13T18:55:18.888Z,6.77
2018-09-13T18:57:45.783Z,6.47
2018-09-13T19:00:12.717Z,5.30
2018-09-13T19:02:39.621Z,6.53
2018-09-13T19:05:06.547Z,5.23
2018-09-13T19:07:33.460Z,5.33
2018-09-13T19:10:00.380Z,5.23
2018-09-13T19:12:27.305Z,8.27
2018-09-13T19:14:54.213Z,5.97
2018-09-13T19:17:21.105Z,6.47
2018-09-13T19:19:48.025Z,6.17
2018-09-13T19:22:14.920Z,7.13
2018-09-13T19:24:41.833Z,7.93
2018-09-13T19:27:08.737Z,7.47
2018-09-13T19:29:35.657Z,6.20
2018-09-13T19:32:02.573Z,6.83
2018-09-13T19:34:29.456Z,6.07
2018-09-13T19:36:56.369Z,5.73
2018-09-13T19:39:23.281Z,5.53
2018-09-13T19:41:50.229Z,7.10
2018-09-13T19:44:17.165Z,6.93
2018-09-13T19:46:44.082Z,6.67
2018-09-13T19:49:11.013Z,8.07
2018-09-13T19:51:37.981Z,9.00
2018-09-13T19:54:04.965Z,6.10
2018-09-13T19:56:31.921Z,5.83
2018-09-13T19:58:58.826Z,5.60
2018-09-13T20:01:25.753Z,8.47
2018-09-13T20:03:52.665Z,8.87
2018-09-13T20:06:19.588Z,6.43
2018-09-13T20:08:46.500Z,5.63
2018-09-13T20:11:13.409Z,3.90
2018-09-13T20:13:40.335Z,8.93
2018-09-13T20:16:07.245Z,9.07
2018-09-13T20:18:34.195Z,6.73
2018-09-13T20:21:01.101Z,6.40
2018-09-13T20:23:28.045Z,5.37
2018-09-13T20:25:55.010Z,6.20
2018-09-13T20:28:21.919Z,4.30
2018-09-13T20:30:48.847Z,5.43
2018-09-13T20:33:15.770Z,9.13
2018-09-13T20:35:42.680Z,4.83
2018-09-13T20:38:09.595Z,8.33
2018-09-13T20:40:36.979Z,5.20
2018-09-13T20:43:04.177Z,6.63
2018-09-13T20:45:31.137Z,8.83
2018-09-13T20:47:58.018Z,6.83
2018-09-13T20:50:24.946Z,8.17
2018-09-13T20:52:51.900Z,5.93
2018-09-13T20:55:18.816Z,6.13
2018-09-13T20:57:45.733Z,10.20
2018-09-13T21:00:17.535Z,6.60
2018-09-13T21:02:44.505Z,7.63
2018-09-13T21:05:11.418Z,8.23
2018-09-13T21:07:38.369Z,8.47
2018-09-13T21:10:05.300Z,9.10
2018-09-13T21:12:32.236Z,8.43
2018-09-13T21:14:59.150Z,7.63
2018-09-13T21:17:26.065Z,8.57
2018-09-13T21:19:52.962Z,7.20
2018-09-13T21:24:53.441Z,10.23
2018-09-13T21:27:20.360Z,10.30
2018-09-13T21:29:47.291Z,7.90
2018-09-13T21:32:14.214Z,9.73
2018-09-13T21:34:41.125Z,7.40
2018-09-13T21:37:08.044Z,11.00
2018-09-13T21:39:34.944Z,7.90
2018-09-13T21:42:01.882Z,6.77
2018-09-13T21:44:28.824Z,5.60
2018-09-13T21:46:55.830Z,6.90
2018-09-13T21:49:22.741Z,6.17
2018-09-13T21:51:49.757Z,7.17
2018-09-13T21:54:16.685Z,6.93
2018-09-13T21:56:43.621Z,9.90
2018-09-13T21:59:10.529Z,6.87
2018-09-13T22:01:37.437Z,10.00
2018-09-13T22:04:04.353Z,8.20
2018-09-13T22:06:31.264Z,7.60
2018-09-13T22:08:58.235Z,10.57
2018-09-13T22:11:25.309Z,9.30
2018-09-13T22:13:52.176Z,5.70
2018-09-13T22:16:19.101Z,8.87
2018-09-13T22:18:46.042Z,6.43
2018-09-13T22:21:12.998Z,6.30
2018-09-13T22:23:39.913Z,7.67
2018-09-13T22:26:06.829Z,8.20
2018-09-13T22:28:33.770Z,6.83
2018-09-13T22:31:00.660Z,7.90
2018-09-13T22:33:27.582Z,6.67
2018-09-13T22:35:54.497Z,7.30
2018-09-13T22:38:21.424Z,5.17
2018-09-13T22:40:48.339Z,7.10
2018-09-13T22:43:15.274Z,6.17
2018-09-13T22:45:42.181Z,5.23
2018-09-13T22:48:09.105Z,7.70
2018-09-13T22:50:36.022Z,10.07
2018-09-13T22:53:02.969Z,8.87
2018-09-13T22:55:29.905Z,7.70
2018-09-13T22:57:56.817Z,5.20
2018-09-13T23:00:23.734Z,4.80
2018-09-13T23:02:50.645Z,5.83
2018-09-13T23:05:18.682Z,7.27
2018-09-13T23:07:46.039Z,7.27
2018-09-13T23:10:13.172Z,6.23
2018-09-13T23:12:40.083Z,7.87
2018-09-13T23:15:07.105Z,7.07
2018-09-13T23:17:34.062Z,5.23
2018-09-13T23:20:00.969Z,6.07
2018-09-13T23:22:27.900Z,8.93
2018-09-13T23:24:54.920Z,8.20
2018-09-13T23:27:21.855Z,6.87
2018-09-13T23:29:48.771Z,7.90
2018-09-13T23:32:15.669Z,8.93
2018-09-13T23:34:42.668Z,8.90
2018-09-13T23:37:09.579Z,9.57
2018-09-13T23:39:36.770Z,9.70
2018-09-13T23:42:03.425Z,9.00
2018-09-13T23:44:30.357Z,6.40
2018-09-13T23:46:57.264Z,6.97
2018-09-13T23:49:24.191Z,12.33
2018-09-13T23:51:51.102Z,7.20
2018-09-13T23:54:18.021Z,7.10
2018-09-13T23:56:44.929Z,9.63
2018-09-13T23:59:11.857Z,12.30
